Overseas Martinez — WPAJ — position and weather

sailwx.info

Track history (hours):
 
Tides and Currents Weather Stations Pressure Air Temp Water Temp Dewpoint Dewpoint Depression Visibility Wind Speed Wind Dir Waves Ship Positions

Overseas Martinez

Owner: ASC Leasing VIII, Inc., Philadelphia, PA. More information available from US FCC via Universal Licensing System and Coast Guard Vessel Documentation Center.

Last reported at 2018-Apr-18 09:09 UTC. Time now 2018-Apr-20 06:59 UTC.
Position N 48°30' W 122°34'.

Length 182 m; draft 8.2 m.

Type: Tanker. MMSI: 366508000.

Date/timePositionNaut miles runAvg speedWind from/ knotsBaromVisibWave heightAir tempDewpointWater temp
2018-Apr-18 09:09N 48°30' W 122°34'0 1.0
2018-Apr-18 08:59N 48°31' W 122°35'2 3.8
2018-Apr-18 08:30N 48°32' W 122°37'4 7.2
2018-Apr-18 08:00N 48°31' W 122°42'4 8.5
2018-Apr-18 07:30N 48°27' W 122°45'4 8.8
2018-Apr-18 07:00N 48°24' W 122°49'510.9
2018-Apr-18 06:30N 48°21' W 122°56'510.9
2018-Apr-18 06:00N 48°18' W 123°03'612.2
2018-Apr-18 05:30N 48°14' W 123°10'31 9.5
2018-Apr-18 02:17N 48°13' W 123°56'310.5
2018-Apr-18 01:59N 48°15' W 124°00'510.5
2018-Apr-18 01:30N 48°17' W 124°07'510.3
2018-Apr-18 00:59N 48°19' W 124°14'5 9.8
2018-Apr-18 00:30N 48°21' W 124°21'510.0
2018-Apr-18 00:00N 48°23' W 124°28'510.0
2018-Apr-17 23:30N 48°25' W 124°34'510.0
2018-Apr-17 23:00N 48°27' W 124°41'611.7
2018-Apr-17 22:29N 48°28' W 124°50'612.5
2018-Apr-17 22:00N 48°27' W 124°59'713.1
2018-Apr-17 21:29N 48°22' W 125°06'714.9
2018-Apr-17 20:59N 48°17' W 125°13'8313.3
2018-Apr-17 14:44N 46°54' W 125°20'410.6
2018-Apr-17 14:21N 46°50' W 125°17'410.0
2018-Apr-17 14:00N 46°47' W 125°17'5 9.5
2018-Apr-17 13:30N 46°43' W 125°13'610.0
2018-Apr-17 12:53N 46°37' W 125°09'3 8.7
2018-Apr-17 12:30N 46°35' W 125°05'4 8.9
2018-Apr-17 12:01N 46°33' W 124°60'4 8.5
2018-Apr-17 11:30N 46°30' W 124°55'6 9.3
2018-Apr-17 10:52N 46°27' W 124°47'3 8.3
2018-Apr-17 10:30N 46°26' W 124°43'4 8.4
2018-Apr-17 10:00N 46°23' W 124°38'4 8.6
2018-Apr-17 09:31N 46°21' W 124°33'6 8.8
2018-Apr-17 08:51N 46°18' W 124°26'3 8.4
2018-Apr-17 08:30N 46°16' W 124°23'5 9.2
2018-Apr-17 07:58N 46°14' W 124°17'4 9.4
2018-Apr-17 07:31N 46°11' W 124°11'5 7.1
2018-Apr-17 06:50N 46°15' W 124°06'310.1
2018-Apr-17 06:31N 46°15' W 124°01'11 9.4
2018-Apr-17 05:21N 46°13' W 123°46'513.5
2018-Apr-17 05:00N 46°15' W 123°40'713.2
2018-Apr-17 04:31N 46°16' W 123°31'611.8
2018-Apr-17 04:01N 46°11' W 123°26'611.7
2018-Apr-17 03:30N 46°09' W 123°18'815.1
2018-Apr-17 03:01N 46°11' W 123°08'815.0
2018-Apr-17 02:30N 46°07' W 122°59'612.0
2018-Apr-17 02:00N 46°03' W 122°53'611.8
2018-Apr-17 01:30N 45°58' W 122°49'714.6
2018-Apr-17 01:00N 45°50' W 122°47'814.8
2018-Apr-17 00:30N 45°43' W 122°46'611.3
2018-Apr-17 00:01N 45°37' W 122°47'4 7.1
2018-Apr-16 23:26N 45°34' W 122°44'0 0.3
2018-Apr-16 22:50N 45°34' W 122°44'0 0.0
2018-Apr-16 22:29N 45°34' W 122°44'0 0.0
2018-Apr-16 21:56N 45°34' W 122°44'0 0.0
2018-Apr-16 21:26N 45°34' W 122°44'0 0.0
2018-Apr-16 20:59N 45°34' W 122°44'0 0.0
2018-Apr-16 19:17N 45°34' W 122°44'0 0.0
2018-Apr-16 18:59N 45°34' W 122°44'0 0.0
2018-Apr-16 18:20N 45°34' W 122°44'0 0.0
2018-Apr-16 17:32N 45°34' W 122°44'0 0.0
2018-Apr-16 17:20N 45°34' W 122°44'0 0.0
2018-Apr-16 16:56N 45°34' W 122°44'0 0.0
2018-Apr-16 16:20N 45°34' W 122°44'0 0.0
2018-Apr-16 15:53N 45°34' W 122°44'0 0.0
2018-Apr-16 15:11N 45°34' W 122°44'0 0.0
2018-Apr-16 14:59N 45°34' W 122°44'0 0.0
2018-Apr-16 14:26N 45°34' W 122°44'0 0.0
2018-Apr-16 13:59N 45°34' W 122°44'0 0.0
2018-Apr-16 13:23N 45°34' W 122°44'0 0.0
2018-Apr-16 12:59N 45°34' W 122°44'0 0.0
2018-Apr-16 12:29N 45°34' W 122°44'0 0.0
2018-Apr-16 11:56N 45°34' W 122°44'0 0.0
2018-Apr-16 11:26N 45°34' W 122°44'0 0.0
2018-Apr-16 10:56N 45°34' W 122°44'0 0.0
2018-Apr-16 10:29N 45°34' W 122°44'0 0.0
2018-Apr-16 09:59N 45°34' W 122°44'0 0.0
2018-Apr-16 09:14N 45°34' W 122°44'0 0.0
2018-Apr-16 08:56N 45°34' W 122°44'0 0.0
2018-Apr-16 08:29N 45°34' W 122°44'0 0.0
2018-Apr-16 07:59N 45°34' W 122°44'0 0.0
2018-Apr-16 07:26N 45°34' W 122°44'0 0.0
2018-Apr-16 06:56N 45°34' W 122°44'0 0.0
2018-Apr-16 06:20N 45°34' W 122°44'0 0.0
2018-Apr-16 05:59N 45°34' W 122°44'0 0.0
2018-Apr-16 05:23N 45°34' W 122°44'0 0.0
2018-Apr-16 04:59N 45°34' W 122°44'0 0.4
2018-Apr-16 04:31N 45°34' W 122°44'3 5.3
2018-Apr-16 04:01N 45°36' W 122°47'3 6.7
2018-Apr-16 03:30N 45°39' W 122°46'0 0.6
2018-Apr-16 02:51N 45°39' W 122°46'0 0.1
2018-Apr-16 02:30N 45°39' W 122°46'0 0.0
2018-Apr-16 02:00N 45°39' W 122°46'0 0.6
2018-Apr-16 01:31N 45°39' W 122°46'3 6.7
2018-Apr-16 01:01N 45°43' W 122°46'510.5
2018-Apr-16 00:31N 45°48' W 122°47'510.0
2018-Apr-16 00:00N 45°53' W 122°48'510.2
2018-Apr-15 23:31N 45°58' W 122°49'5 9.8
2018-Apr-15 23:00N 46°02' W 122°53'5 9.1
2018-Apr-15 22:30N 46°06' W 122°56'510.0
2018-Apr-15 22:01N 46°09' W 123°02'510.9
2018-Apr-15 21:30N 46°11' W 123°09'611.4
2018-Apr-15 21:01N 46°09' W 123°17'510.3
2018-Apr-15 20:30N 46°09' W 123°24'510.6
2018-Apr-15 20:00N 46°15' W 123°26'510.8
2018-Apr-15 19:31N 46°15' W 123°34'612.4
2018-Apr-15 19:00N 46°14' W 123°42'611.5
2018-Apr-15 18:30N 46°12' W 123°50'612.3
2018-Apr-15 18:01N 46°13' W 123°58'611.3
2018-Apr-15 17:31N 46°15' W 124°06'611.8
2018-Apr-15 17:00N 46°12' W 124°14'5 9.4
2018-Apr-15 16:31N 46°10' W 124°20'510.1
2018-Apr-15 16:01N 46°08' W 124°27'5 9.3
2018-Apr-15 15:30N 46°08' W 124°34'0 0.9
2018-Apr-15 15:00N 46°08' W 124°33'1 1.3
2018-Apr-15 14:31N 46°07' W 124°33'3 5.4
2018-Apr-15 14:00N 46°06' W 124°36'1 2.1
2018-Apr-15 13:30N 46°05' W 124°38'2 4.8
2018-Apr-15 13:00N 46°05' W 124°41'510.4
2018-Apr-15 12:30N 46°03' W 124°48'510.3
2018-Apr-15 12:01N 46°01' W 124°55'510.4
2018-Apr-15 11:30N 45°59' W 125°02'510.8
2018-Apr-15 11:01N 45°59' W 125°10'4 8.2
2018-Apr-15 10:30N 46°00' W 125°15'12 9.0
2018-Apr-15 09:11N 45°52' W 125°27'210.3
2018-Apr-15 09:00N 45°50' W 125°27'11111.1
2018-Apr-14 23:00N 44°00' W 125°48'13211.0 200 / 241020.9 13.0 9.8
2018-Apr-14 11:00N 41°48' W 125°54'15812.1 230 / 101029.710.8 12.0 11.0
2018-Apr-13 22:00N 39°12' W 125°24'30111.6 320 / 191034.210.8 15.0 11.8
2018-Apr-12 20:00N 34°48' W 122°24'4310.2 340 / 401027.710.8 14.0 13.5
2018-Apr-12 15:47N 34°12' W 121°55'310.7
2018-Apr-12 15:30N 34°09' W 121°53'1010.9
2018-Apr-12 14:36N 34°01' W 121°47'111.2
2018-Apr-12 14:30N 34°00' W 121°47'610.9
2018-Apr-12 14:00N 33°55' W 121°43'611.1
2018-Apr-12 13:30N 33°51' W 121°40'611.3
2018-Apr-12 13:00N 33°46' W 121°36'510.9
2018-Apr-12 12:30N 33°41' W 121°33'611.8
2018-Apr-12 12:00N 33°41' W 121°25'611.9
2018-Apr-12 11:30N 33°41' W 121°18'612.1
2018-Apr-12 11:00N 33°41' W 121°11'612.1
2018-Apr-12 10:30N 33°41' W 121°04'612.4
2018-Apr-12 10:00N 33°41' W 120°56'612.6
2018-Apr-12 09:30N 33°41' W 120°49'612.4
2018-Apr-12 09:00N 33°41' W 120°42'612.6
2018-Apr-12 08:30N 33°41' W 120°34'713.3
2018-Apr-12 07:59N 33°41' W 120°25'613.4
2018-Apr-12 07:30N 33°41' W 120°18'713.5
2018-Apr-12 06:58N 33°41' W 120°09'613.5
2018-Apr-12 06:30N 33°41' W 120°02'712.8
2018-Apr-12 05:58N 33°41' W 119°53'612.9
2018-Apr-12 05:30N 33°41' W 119°46'713.2
2018-Apr-12 05:00N 33°41' W 119°38'712.8
2018-Apr-12 04:27N 33°41' W 119°30'612.6
2018-Apr-12 03:58N 33°41' W 119°23'612.4
2018-Apr-12 03:30N 33°41' W 119°16'612.1
2018-Apr-12 03:00N 33°41' W 119°08'611.0
2018-Apr-12 02:30N 33°41' W 119°02'611.0
2018-Apr-12 01:59N 33°40' W 118°55'611.3
2018-Apr-12 01:29N 33°40' W 118°48'611.9
2018-Apr-12 01:00N 33°39' W 118°41'611.6
2018-Apr-12 00:30N 33°39' W 118°34'611.5
2018-Apr-12 00:00N 33°39' W 118°27'611.7
2018-Apr-11 23:30N 33°38' W 118°20'611.5
2018-Apr-11 23:00N 33°39' W 118°14'4 8.9
2018-Apr-11 22:30N 33°43' W 118°11'3 5.9
2018-Apr-11 22:00N 33°45' W 118°13'1 2.0
2018-Apr-11 21:30N 33°46' W 118°13'0 0.2
2018-Apr-11 21:00N 33°47' W 118°13'0 0.0
2018-Apr-11 20:30N 33°47' W 118°13'0 0.0
2018-Apr-11 20:00N 33°47' W 118°13'0 0.0
2018-Apr-11 19:30N 33°47' W 118°13'0 0.0
2018-Apr-11 19:00N 33°47' W 118°13'0 0.0
2018-Apr-11 18:15N 33°47' W 118°13'0 0.0
2018-Apr-11 17:57N 33°47' W 118°13'0 0.1
2018-Apr-11 17:15N 33°47' W 118°13'0 0.2
2018-Apr-11 17:00N 33°47' W 118°13'0 0.0
2018-Apr-11 16:27N 33°47' W 118°13'0 0.0
2018-Apr-11 16:00N 33°47' W 118°13'0 0.0
2018-Apr-11 15:30N 33°47' W 118°13'0 0.0
2018-Apr-11 15:00N 33°47' W 118°13'0 0.0
2018-Apr-11 14:30N 33°47' W 118°13'0 0.0
2018-Apr-11 02:12N 33°47' W 118°13'0 0.0
2018-Apr-11 02:00N 33°47' W 118°13'0 0.0
2018-Apr-11 01:12N 33°47' W 118°13'0 0.0
2018-Apr-11 01:00N 33°47' W 118°13'0 0.0
2018-Apr-11 00:24N 33°47' W 118°13'0 0.0
2018-Apr-10 23:48N 33°47' W 118°13'0 0.0
2018-Apr-10 23:30N 33°47' W 118°13'0 0.0
2018-Apr-10 23:00N 33°47' W 118°13'0 0.0
2018-Apr-10 22:24N 33°47' W 118°13'0 0.0
2018-Apr-10 21:54N 33°47' W 118°13'0 0.0
2018-Apr-10 21:30N 33°47' W 118°13'0 0.0
2018-Apr-10 20:54N 33°47' W 118°13'0 0.0
2018-Apr-10 20:24N 33°47' W 118°13'0 0.0
2018-Apr-10 19:30N 33°47' W 118°13'0 0.0
2018-Apr-10 19:00N 33°47' W 118°13'0 0.0
2018-Apr-10 18:30N 33°47' W 118°13'0 0.0
2018-Apr-10 17:18N 33°47' W 118°13'0 0.0
2018-Apr-10 15:18N 33°47' W 118°13'0 0.0
2018-Apr-10 15:00N 33°47' W 118°13'0 0.0
2018-Apr-10 14:30N 33°47' W 118°13'0 0.0
2018-Apr-10 14:00N 33°47' W 118°13'0 0.0
2018-Apr-10 02:27N 33°47' W 118°13'0 0.0
2018-Apr-10 02:00N 33°47' W 118°13'0 0.0
2018-Apr-10 01:30N 33°47' W 118°13'0 0.0
2018-Apr-10 00:57N 33°47' W 118°13'0 0.0
2018-Apr-10 00:27N 33°47' W 118°13'0 0.0
2018-Apr-10 00:00N 33°47' W 118°13'0 0.0
2018-Apr-09 23:30N 33°47' W 118°13'0 0.1
2018-Apr-09 23:00N 33°47' W 118°13'0 0.1
2018-Apr-09 22:30N 33°47' W 118°13'0 0.0
2018-Apr-09 21:57N 33°47' W 118°13'0 0.0
2018-Apr-09 21:30N 33°47' W 118°13'0 0.0
2018-Apr-09 21:00N 33°47' W 118°13'0 0.0
2018-Apr-09 20:27N 33°47' W 118°13'0 0.0
2018-Apr-09 19:54N 33°47' W 118°13'0 0.0
2018-Apr-09 18:24N 33°47' W 118°13'0 0.0
2018-Apr-09 18:00N 33°47' W 118°13'0 0.0
2018-Apr-09 17:30N 33°47' W 118°13'0 0.0
2018-Apr-09 14:54N 33°47' W 118°13'0 0.0
2018-Apr-08 20:39N 33°47' W 118°13'0 0.0
2018-Apr-08 17:21N 33°47' W 118°13'0 0.1
2018-Apr-08 16:57N 33°47' W 118°13'0 0.1
2018-Apr-08 16:30N 33°47' W 118°13'0 0.0
2018-Apr-08 14:57N 33°47' W 118°13'0 0.0
2018-Apr-08 14:21N 33°47' W 118°13'0 0.0
2018-Apr-08 13:45N 33°47' W 118°13'  
Track history (hours):
 
Tides and Currents Weather Stations Pressure Air Temp Water Temp Dewpoint Dewpoint Depression Visibility Wind Speed Wind Dir Waves Ship Positions

Overseas Martinez

Owner: ASC Leasing VIII, Inc., Philadelphia, PA. More information available from US FCC via Universal Licensing System and Coast Guard Vessel Documentation Center.

Last reported at 2018-Apr-18 09:09 UTC. Time now 2018-Apr-20 06:59 UTC.
Position N 48°30' W 122°34'.

Length 182 m; draft 8.2 m.

Type: Tanker. MMSI: 366508000.

Date/timePositionNaut miles runAvg speedWind from/ knotsBaromVisibWave heightAir tempDewpointWater temp
2018-Apr-18 09:09N 48°30' W 122°34'0 1.0
2018-Apr-18 08:59N 48°31' W 122°35'2 3.8
2018-Apr-18 08:30N 48°32' W 122°37'4 7.2
2018-Apr-18 08:00N 48°31' W 122°42'4 8.5
2018-Apr-18 07:30N 48°27' W 122°45'4 8.8
2018-Apr-18 07:00N 48°24' W 122°49'510.9
2018-Apr-18 06:30N 48°21' W 122°56'510.9
2018-Apr-18 06:00N 48°18' W 123°03'612.2
2018-Apr-18 05:30N 48°14' W 123°10'31 9.5
2018-Apr-18 02:17N 48°13' W 123°56'310.5
2018-Apr-18 01:59N 48°15' W 124°00'510.5
2018-Apr-18 01:30N 48°17' W 124°07'510.3
2018-Apr-18 00:59N 48°19' W 124°14'5 9.8
2018-Apr-18 00:30N 48°21' W 124°21'510.0
2018-Apr-18 00:00N 48°23' W 124°28'510.0
2018-Apr-17 23:30N 48°25' W 124°34'510.0
2018-Apr-17 23:00N 48°27' W 124°41'611.7
2018-Apr-17 22:29N 48°28' W 124°50'612.5
2018-Apr-17 22:00N 48°27' W 124°59'713.1
2018-Apr-17 21:29N 48°22' W 125°06'714.9
2018-Apr-17 20:59N 48°17' W 125°13'8313.3
2018-Apr-17 14:44N 46°54' W 125°20'410.6
2018-Apr-17 14:21N 46°50' W 125°17'410.0
2018-Apr-17 14:00N 46°47' W 125°17'5 9.5
2018-Apr-17 13:30N 46°43' W 125°13'610.0
2018-Apr-17 12:53N 46°37' W 125°09'3 8.7
2018-Apr-17 12:30N 46°35' W 125°05'4 8.9
2018-Apr-17 12:01N 46°33' W 124°60'4 8.5
2018-Apr-17 11:30N 46°30' W 124°55'6 9.3
2018-Apr-17 10:52N 46°27' W 124°47'3 8.3
2018-Apr-17 10:30N 46°26' W 124°43'4 8.4
2018-Apr-17 10:00N 46°23' W 124°38'4 8.6
2018-Apr-17 09:31N 46°21' W 124°33'6 8.8
2018-Apr-17 08:51N 46°18' W 124°26'3 8.4
2018-Apr-17 08:30N 46°16' W 124°23'5 9.2
2018-Apr-17 07:58N 46°14' W 124°17'4 9.4
2018-Apr-17 07:31N 46°11' W 124°11'5 7.1
2018-Apr-17 06:50N 46°15' W 124°06'310.1
2018-Apr-17 06:31N 46°15' W 124°01'11 9.4
2018-Apr-17 05:21N 46°13' W 123°46'513.5
2018-Apr-17 05:00N 46°15' W 123°40'713.2
2018-Apr-17 04:31N 46°16' W 123°31'611.8
2018-Apr-17 04:01N 46°11' W 123°26'611.7
2018-Apr-17 03:30N 46°09' W 123°18'815.1
2018-Apr-17 03:01N 46°11' W 123°08'815.0
2018-Apr-17 02:30N 46°07' W 122°59'612.0
2018-Apr-17 02:00N 46°03' W 122°53'611.8
2018-Apr-17 01:30N 45°58' W 122°49'714.6
2018-Apr-17 01:00N 45°50' W 122°47'814.8
2018-Apr-17 00:30N 45°43' W 122°46'611.3
2018-Apr-17 00:01N 45°37' W 122°47'4 7.1
2018-Apr-16 23:26N 45°34' W 122°44'0 0.3
2018-Apr-16 22:50N 45°34' W 122°44'0 0.0
2018-Apr-16 22:29N 45°34' W 122°44'0 0.0
2018-Apr-16 21:56N 45°34' W 122°44'0 0.0
2018-Apr-16 21:26N 45°34' W 122°44'0 0.0
2018-Apr-16 20:59N 45°34' W 122°44'0 0.0
2018-Apr-16 19:17N 45°34' W 122°44'0 0.0
2018-Apr-16 18:59N 45°34' W 122°44'0 0.0
2018-Apr-16 18:20N 45°34' W 122°44'0 0.0
2018-Apr-16 17:32N 45°34' W 122°44'0 0.0
2018-Apr-16 17:20N 45°34' W 122°44'0 0.0
2018-Apr-16 16:56N 45°34' W 122°44'0 0.0
2018-Apr-16 16:20N 45°34' W 122°44'0 0.0
2018-Apr-16 15:53N 45°34' W 122°44'0 0.0
2018-Apr-16 15:11N 45°34' W 122°44'0 0.0
2018-Apr-16 14:59N 45°34' W 122°44'0 0.0
2018-Apr-16 14:26N 45°34' W 122°44'0 0.0
2018-Apr-16 13:59N 45°34' W 122°44'0 0.0
2018-Apr-16 13:23N 45°34' W 122°44'0 0.0
2018-Apr-16 12:59N 45°34' W 122°44'0 0.0
2018-Apr-16 12:29N 45°34' W 122°44'0 0.0
2018-Apr-16 11:56N 45°34' W 122°44'0 0.0
2018-Apr-16 11:26N 45°34' W 122°44'0 0.0
2018-Apr-16 10:56N 45°34' W 122°44'0 0.0
2018-Apr-16 10:29N 45°34' W 122°44'0 0.0
2018-Apr-16 09:59N 45°34' W 122°44'0 0.0
2018-Apr-16 09:14N 45°34' W 122°44'0 0.0
2018-Apr-16 08:56N 45°34' W 122°44'0 0.0
2018-Apr-16 08:29N 45°34' W 122°44'0 0.0
2018-Apr-16 07:59N 45°34' W 122°44'0 0.0
2018-Apr-16 07:26N 45°34' W 122°44'0 0.0
2018-Apr-16 06:56N 45°34' W 122°44'0 0.0
2018-Apr-16 06:20N 45°34' W 122°44'0 0.0
2018-Apr-16 05:59N 45°34' W 122°44'0 0.0
2018-Apr-16 05:23N 45°34' W 122°44'0 0.0
2018-Apr-16 04:59N 45°34' W 122°44'0 0.4
2018-Apr-16 04:31N 45°34' W 122°44'3 5.3
2018-Apr-16 04:01N 45°36' W 122°47'3 6.7
2018-Apr-16 03:30N 45°39' W 122°46'0 0.6
2018-Apr-16 02:51N 45°39' W 122°46'0 0.1
2018-Apr-16 02:30N 45°39' W 122°46'0 0.0
2018-Apr-16 02:00N 45°39' W 122°46'0 0.6
2018-Apr-16 01:31N 45°39' W 122°46'3 6.7
2018-Apr-16 01:01N 45°43' W 122°46'510.5
2018-Apr-16 00:31N 45°48' W 122°47'510.0
2018-Apr-16 00:00N 45°53' W 122°48'510.2
2018-Apr-15 23:31N 45°58' W 122°49'5 9.8
2018-Apr-15 23:00N 46°02' W 122°53'5 9.1
2018-Apr-15 22:30N 46°06' W 122°56'510.0
2018-Apr-15 22:01N 46°09' W 123°02'510.9
2018-Apr-15 21:30N 46°11' W 123°09'611.4
2018-Apr-15 21:01N 46°09' W 123°17'510.3
2018-Apr-15 20:30N 46°09' W 123°24'510.6
2018-Apr-15 20:00N 46°15' W 123°26'510.8
2018-Apr-15 19:31N 46°15' W 123°34'612.4
2018-Apr-15 19:00N 46°14' W 123°42'611.5
2018-Apr-15 18:30N 46°12' W 123°50'612.3
2018-Apr-15 18:01N 46°13' W 123°58'611.3
2018-Apr-15 17:31N 46°15' W 124°06'611.8
2018-Apr-15 17:00N 46°12' W 124°14'5 9.4
2018-Apr-15 16:31N 46°10' W 124°20'510.1
2018-Apr-15 16:01N 46°08' W 124°27'5 9.3
2018-Apr-15 15:30N 46°08' W 124°34'0 0.9
2018-Apr-15 15:00N 46°08' W 124°33'1 1.3
2018-Apr-15 14:31N 46°07' W 124°33'3 5.4
2018-Apr-15 14:00N 46°06' W 124°36'1 2.1
2018-Apr-15 13:30N 46°05' W 124°38'2 4.8
2018-Apr-15 13:00N 46°05' W 124°41'510.4
2018-Apr-15 12:30N 46°03' W 124°48'510.3
2018-Apr-15 12:01N 46°01' W 124°55'510.4
2018-Apr-15 11:30N 45°59' W 125°02'510.8
2018-Apr-15 11:01N 45°59' W 125°10'4 8.2
2018-Apr-15 10:30N 46°00' W 125°15'12 9.0
2018-Apr-15 09:11N 45°52' W 125°27'210.3
2018-Apr-15 09:00N 45°50' W 125°27'11111.1
2018-Apr-14 23:00N 44°00' W 125°48'13211.0 200 / 241020.9 13.0 9.8
2018-Apr-14 11:00N 41°48' W 125°54'15812.1 230 / 101029.710.8 12.0 11.0
2018-Apr-13 22:00N 39°12' W 125°24'30111.6 320 / 191034.210.8 15.0 11.8
2018-Apr-12 20:00N 34°48' W 122°24'4310.2 340 / 401027.710.8 14.0 13.5
2018-Apr-12 15:47N 34°12' W 121°55'310.7
2018-Apr-12 15:30N 34°09' W 121°53'1010.9
2018-Apr-12 14:36N 34°01' W 121°47'111.2
2018-Apr-12 14:30N 34°00' W 121°47'610.9
2018-Apr-12 14:00N 33°55' W 121°43'611.1
2018-Apr-12 13:30N 33°51' W 121°40'611.3
2018-Apr-12 13:00N 33°46' W 121°36'510.9
2018-Apr-12 12:30N 33°41' W 121°33'611.8
2018-Apr-12 12:00N 33°41' W 121°25'611.9
2018-Apr-12 11:30N 33°41' W 121°18'612.1
2018-Apr-12 11:00N 33°41' W 121°11'612.1
2018-Apr-12 10:30N 33°41' W 121°04'612.4
2018-Apr-12 10:00N 33°41' W 120°56'612.6
2018-Apr-12 09:30N 33°41' W 120°49'612.4
2018-Apr-12 09:00N 33°41' W 120°42'612.6
2018-Apr-12 08:30N 33°41' W 120°34'713.3
2018-Apr-12 07:59N 33°41' W 120°25'613.4
2018-Apr-12 07:30N 33°41' W 120°18'713.5
2018-Apr-12 06:58N 33°41' W 120°09'613.5
2018-Apr-12 06:30N 33°41' W 120°02'712.8
2018-Apr-12 05:58N 33°41' W 119°53'612.9
2018-Apr-12 05:30N 33°41' W 119°46'713.2
2018-Apr-12 05:00N 33°41' W 119°38'712.8
2018-Apr-12 04:27N 33°41' W 119°30'612.6
2018-Apr-12 03:58N 33°41' W 119°23'612.4
2018-Apr-12 03:30N 33°41' W 119°16'612.1
2018-Apr-12 03:00N 33°41' W 119°08'611.0
2018-Apr-12 02:30N 33°41' W 119°02'611.0
2018-Apr-12 01:59N 33°40' W 118°55'611.3
2018-Apr-12 01:29N 33°40' W 118°48'611.9
2018-Apr-12 01:00N 33°39' W 118°41'611.6
2018-Apr-12 00:30N 33°39' W 118°34'611.5
2018-Apr-12 00:00N 33°39' W 118°27'611.7
2018-Apr-11 23:30N 33°38' W 118°20'611.5
2018-Apr-11 23:00N 33°39' W 118°14'4 8.9
2018-Apr-11 22:30N 33°43' W 118°11'3 5.9
2018-Apr-11 22:00N 33°45' W 118°13'1 2.0
2018-Apr-11 21:30N 33°46' W 118°13'0 0.2
2018-Apr-11 21:00N 33°47' W 118°13'0 0.0
2018-Apr-11 20:30N 33°47' W 118°13'0 0.0
2018-Apr-11 20:00N 33°47' W 118°13'0 0.0
2018-Apr-11 19:30N 33°47' W 118°13'0 0.0
2018-Apr-11 19:00N 33°47' W 118°13'0 0.0
2018-Apr-11 18:15N 33°47' W 118°13'0 0.0
2018-Apr-11 17:57N 33°47' W 118°13'0 0.1
2018-Apr-11 17:15N 33°47' W 118°13'0 0.2
2018-Apr-11 17:00N 33°47' W 118°13'0 0.0
2018-Apr-11 16:27N 33°47' W 118°13'0 0.0
2018-Apr-11 16:00N 33°47' W 118°13'0 0.0
2018-Apr-11 15:30N 33°47' W 118°13'0 0.0
2018-Apr-11 15:00N 33°47' W 118°13'0 0.0
2018-Apr-11 14:30N 33°47' W 118°13'0 0.0
2018-Apr-11 02:12N 33°47' W 118°13'0 0.0
2018-Apr-11 02:00N 33°47' W 118°13'0 0.0
2018-Apr-11 01:12N 33°47' W 118°13'0 0.0
2018-Apr-11 01:00N 33°47' W 118°13'0 0.0
2018-Apr-11 00:24N 33°47' W 118°13'0 0.0
2018-Apr-10 23:48N 33°47' W 118°13'0 0.0
2018-Apr-10 23:30N 33°47' W 118°13'0 0.0
2018-Apr-10 23:00N 33°47' W 118°13'0 0.0
2018-Apr-10 22:24N 33°47' W 118°13'0 0.0
2018-Apr-10 21:54N 33°47' W 118°13'0 0.0
2018-Apr-10 21:30N 33°47' W 118°13'0 0.0
2018-Apr-10 20:54N 33°47' W 118°13'0 0.0
2018-Apr-10 20:24N 33°47' W 118°13'0 0.0
2018-Apr-10 19:30N 33°47' W 118°13'0 0.0
2018-Apr-10 19:00N 33°47' W 118°13'0 0.0
2018-Apr-10 18:30N 33°47' W 118°13'0 0.0
2018-Apr-10 17:18N 33°47' W 118°13'0 0.0
2018-Apr-10 15:18N 33°47' W 118°13'0 0.0
2018-Apr-10 15:00N 33°47' W 118°13'0 0.0
2018-Apr-10 14:30N 33°47' W 118°13'0 0.0
2018-Apr-10 14:00N 33°47' W 118°13'0 0.0
2018-Apr-10 02:27N 33°47' W 118°13'0 0.0
2018-Apr-10 02:00N 33°47' W 118°13'0 0.0
2018-Apr-10 01:30N 33°47' W 118°13'0 0.0
2018-Apr-10 00:57N 33°47' W 118°13'0 0.0
2018-Apr-10 00:27N 33°47' W 118°13'0 0.0
2018-Apr-10 00:00N 33°47' W 118°13'0 0.0
2018-Apr-09 23:30N 33°47' W 118°13'0 0.1
2018-Apr-09 23:00N 33°47' W 118°13'0 0.1
2018-Apr-09 22:30N 33°47' W 118°13'0 0.0
2018-Apr-09 21:57N 33°47' W 118°13'0 0.0
2018-Apr-09 21:30N 33°47' W 118°13'0 0.0
2018-Apr-09 21:00N 33°47' W 118°13'0 0.0
2018-Apr-09 20:27N 33°47' W 118°13'0 0.0
2018-Apr-09 19:54N 33°47' W 118°13'0 0.0
2018-Apr-09 18:24N 33°47' W 118°13'0 0.0
2018-Apr-09 18:00N 33°47' W 118°13'0 0.0
2018-Apr-09 17:30N 33°47' W 118°13'0 0.0
2018-Apr-09 14:54N 33°47' W 118°13'0 0.0
2018-Apr-08 20:39N 33°47' W 118°13'0 0.0
2018-Apr-08 17:21N 33°47' W 118°13'0 0.1
2018-Apr-08 16:57N 33°47' W 118°13'0 0.1
2018-Apr-08 16:30N 33°47' W 118°13'0 0.0
2018-Apr-08 14:57N 33°47' W 118°13'0 0.0
2018-Apr-08 14:21N 33°47' W 118°13'0 0.0
2018-Apr-08 13:45N 33°47' W 118°13'  

Dump ship's entire track history